createdAt,value
2018-09-21T00:01:20.989Z,58.53
2018-09-21T00:03:54.176Z,58.80
2018-09-21T00:06:22.092Z,58.58
2018-09-21T00:08:49.571Z,58.63
2018-09-21T00:11:17.554Z,58.38
2018-09-21T00:13:45.354Z,58.60
2018-09-21T00:16:12.828Z,58.38
2018-09-21T00:18:40.242Z,58.62
2018-09-21T00:21:07.912Z,58.89
2018-09-21T00:23:35.422Z,58.61
2018-09-21T00:26:02.910Z,58.45
2018-09-21T00:28:30.550Z,59.02
2018-09-21T00:30:58.004Z,58.48
2018-09-21T00:33:25.447Z,58.66
2018-09-21T00:35:53.074Z,58.79
2018-09-21T00:38:20.593Z,58.72
2018-09-21T00:40:48.080Z,58.53
2018-09-21T00:43:15.825Z,58.74
2018-09-21T00:45:43.300Z,58.90
2018-09-21T00:48:10.723Z,58.91
2018-09-21T00:50:38.863Z,58.90
2018-09-21T00:53:06.420Z,59.09
2018-09-21T00:55:34.015Z,58.73
2018-09-21T00:58:01.547Z,59.22
2018-09-21T01:00:29.077Z,58.85
2018-09-21T01:02:56.539Z,59.23
2018-09-21T01:05:24.226Z,59.26
2018-09-21T01:07:51.644Z,58.95
2018-09-21T01:10:19.126Z,58.95
2018-09-21T01:12:46.792Z,59.18
2018-09-21T01:15:14.322Z,59.05
2018-09-21T01:17:41.716Z,59.09
2018-09-21T01:20:09.384Z,59.07
2018-09-21T01:22:36.821Z,59.26
2018-09-21T01:25:04.266Z,59.27
2018-09-21T01:27:31.810Z,59.33
2018-09-21T01:29:59.302Z,59.09
2018-09-21T01:32:26.709Z,59.09
2018-09-21T01:34:54.413Z,59.18
2018-09-21T01:37:21.930Z,59.21
2018-09-21T01:39:49.372Z,59.15
2018-09-21T01:42:17.128Z,59.62
2018-09-21T01:44:44.570Z,59.67
2018-09-21T01:47:12.084Z,59.47
2018-09-21T01:49:39.763Z,59.59
2018-09-21T01:52:07.546Z,59.64
2018-09-21T01:54:34.963Z,59.60
2018-09-21T01:57:02.497Z,59.70
2018-09-21T01:59:30.042Z,59.62
2018-09-21T02:01:57.495Z,59.66
2018-09-21T02:04:40.325Z,59.79
2018-09-21T02:07:09.440Z,59.62
2018-09-21T02:09:37.228Z,59.27
2018-09-21T02:12:04.764Z,59.56
2018-09-21T02:14:32.200Z,59.13
2018-09-21T02:16:59.988Z,59.33
2018-09-21T02:19:27.570Z,59.23
2018-09-21T02:21:55.039Z,59.52
2018-09-21T02:24:22.876Z,59.60
2018-09-21T02:26:50.979Z,59.62
2018-09-21T02:29:18.443Z,59.87
2018-09-21T02:31:46.482Z,59.82
2018-09-21T02:34:13.907Z,59.34
2018-09-21T02:36:41.372Z,60.02
2018-09-21T02:39:09.383Z,59.96
2018-09-21T02:41:37.028Z,60.11
2018-09-21T02:44:04.648Z,60.39
2018-09-21T02:46:32.361Z,60.42
2018-09-21T02:48:59.891Z,60.17
2018-09-21T02:51:27.318Z,60.21
2018-09-21T02:53:54.993Z,60.41
2018-09-21T02:56:22.591Z,59.82
2018-09-21T02:58:50.405Z,60.62
2018-09-21T03:01:18.137Z,60.42
2018-09-21T03:03:45.674Z,60.71
2018-09-21T03:06:13.426Z,60.87
2018-09-21T03:08:40.984Z,60.90
2018-09-21T03:11:08.478Z,60.80
2018-09-21T03:13:36.037Z,60.67
2018-09-21T03:16:03.729Z,61.32
2018-09-21T03:18:31.176Z,61.22
2018-09-21T03:20:58.589Z,61.33
2018-09-21T03:23:26.335Z,60.93
2018-09-21T03:25:53.860Z,61.26
2018-09-21T03:28:21.312Z,61.38
2018-09-21T03:30:49.166Z,61.69
2018-09-21T03:33:16.602Z,61.71
2018-09-21T03:35:44.124Z,61.72
2018-09-21T03:38:11.857Z,62.23
2018-09-21T03:40:39.363Z,62.10
2018-09-21T03:43:07.860Z,62.04
2018-09-21T03:45:35.471Z,61.93
2018-09-21T03:48:02.966Z,62.12
2018-09-21T03:50:30.390Z,62.07
2018-09-21T03:52:57.929Z,62.25
2018-09-21T03:55:25.517Z,62.66
2018-09-21T03:57:52.984Z,62.02
2018-09-21T04:00:20.638Z,62.26
2018-09-21T04:02:48.220Z,63.04
2018-09-21T04:05:15.650Z,62.86
2018-09-21T04:07:43.277Z,62.69
2018-09-21T04:10:10.733Z,62.92
2018-09-21T04:12:38.211Z,62.75
2018-09-21T04:15:06.574Z,62.99
2018-09-21T04:17:34.034Z,63.38
2018-09-21T04:20:01.492Z,63.03
2018-09-21T04:22:29.167Z,63.54
2018-09-21T04:24:56.699Z,63.52
2018-09-21T04:27:24.239Z,63.64
2018-09-21T04:29:52.053Z,63.97
2018-09-21T04:32:19.491Z,64.27
2018-09-21T04:34:47.001Z,63.92
2018-09-21T04:37:14.774Z,63.81
2018-09-21T04:39:42.307Z,63.93
2018-09-21T04:42:09.727Z,63.87
2018-09-21T04:44:37.357Z,64.22
2018-09-21T04:47:04.868Z,64.09
2018-09-21T04:49:32.324Z,64.25
2018-09-21T04:51:59.973Z,64.08
2018-09-21T04:54:27.379Z,64.06
2018-09-21T04:56:55.036Z,63.85
2018-09-21T04:59:22.705Z,63.88
2018-09-21T05:01:50.198Z,63.96
2018-09-21T05:04:17.621Z,63.81
2018-09-21T05:06:45.295Z,63.93
2018-09-21T05:09:12.754Z,63.96
2018-09-21T05:11:40.214Z,64.01
2018-09-21T05:14:07.941Z,64.08
2018-09-21T05:16:35.375Z,63.65
2018-09-21T05:19:03.033Z,63.95
2018-09-21T05:21:30.695Z,63.89
2018-09-21T05:23:58.196Z,64.02
2018-09-21T05:26:25.640Z,64.04
2018-09-21T05:28:53.173Z,63.54
2018-09-21T05:31:20.669Z,64.00
2018-09-21T05:33:48.056Z,64.16
2018-09-21T05:36:15.646Z,63.67
2018-09-21T05:38:43.168Z,63.72
2018-09-21T05:41:10.652Z,64.13
2018-09-21T05:43:38.358Z,63.94
2018-09-21T05:46:06.056Z,63.65
2018-09-21T05:48:33.488Z,63.95
2018-09-21T05:51:01.190Z,64.05
2018-09-21T05:53:28.673Z,63.97
2018-09-21T05:55:56.207Z,64.24
2018-09-21T05:58:23.985Z,64.06
2018-09-21T06:00:51.508Z,64.21
2018-09-21T06:03:19.056Z,64.73
2018-09-21T06:05:46.777Z,64.33
2018-09-21T06:08:14.261Z,64.37
2018-09-21T06:10:41.727Z,64.74
2018-09-21T06:13:09.504Z,64.56
2018-09-21T06:15:36.923Z,64.63
2018-09-21T06:18:04.478Z,64.74
2018-09-21T06:20:32.044Z,64.70
2018-09-21T06:22:59.517Z,64.39
2018-09-21T06:25:27.045Z,64.54
2018-09-21T06:27:54.816Z,64.93
2018-09-21T06:30:22.284Z,65.04
2018-09-21T06:32:49.739Z,64.95
2018-09-21T06:35:17.485Z,64.74
2018-09-21T06:37:44.977Z,64.86
2018-09-21T06:40:12.414Z,65.10
2018-09-21T06:42:40.132Z,65.10
2018-09-21T06:45:07.673Z,65.06
2018-09-21T06:47:35.169Z,65.11
2018-09-21T06:50:03.190Z,65.01
2018-09-21T06:52:30.868Z,65.29
2018-09-21T06:54:58.438Z,64.83
2018-09-21T06:57:26.043Z,64.87
2018-09-21T06:59:53.543Z,64.95
2018-09-21T07:02:20.990Z,64.71
2018-09-21T07:04:48.839Z,64.63
2018-09-21T07:07:16.235Z,64.87
2018-09-21T07:09:43.701Z,64.63
2018-09-21T07:12:11.558Z,64.95
2018-09-21T07:14:39.074Z,64.53
2018-09-21T07:17:06.567Z,64.64
2018-09-21T07:19:34.243Z,64.50
2018-09-21T07:22:01.731Z,64.59
2018-09-21T07:24:29.203Z,64.42
2018-09-21T07:26:56.869Z,64.49
2018-09-21T07:29:24.341Z,64.76
2018-09-21T07:31:51.783Z,64.50
2018-09-21T07:34:19.596Z,64.47
2018-09-21T07:36:47.037Z,64.06
2018-09-21T07:39:14.563Z,64.47
2018-09-21T07:41:42.282Z,63.98
2018-09-21T07:44:09.783Z,64.01
2018-09-21T07:46:37.260Z,63.63
2018-09-21T07:49:04.908Z,64.01
2018-09-21T07:51:32.400Z,63.40
2018-09-21T07:54:00.120Z,62.94
2018-09-21T07:56:27.676Z,62.93
2018-09-21T07:58:55.188Z,63.08
2018-09-21T08:01:22.658Z,62.98
2018-09-21T08:03:50.354Z,62.49
2018-09-21T08:06:17.785Z,62.48
2018-09-21T08:08:45.308Z,62.60
2018-09-21T08:11:13.076Z,62.12
2018-09-21T08:13:40.595Z,61.80
2018-09-21T08:16:08.050Z,61.67
2018-09-21T08:18:35.738Z,62.14
2018-09-21T08:21:03.252Z,61.83
2018-09-21T08:23:30.704Z,62.05
2018-09-21T08:25:58.400Z,61.69
2018-09-21T08:28:25.893Z,61.87
2018-09-21T08:30:53.333Z,61.52
2018-09-21T08:33:21.114Z,61.80
2018-09-21T08:35:48.572Z,62.05
2018-09-21T08:38:16.046Z,61.68
2018-09-21T08:40:43.624Z,61.94
2018-09-21T08:43:11.125Z,61.43
2018-09-21T08:45:38.625Z,60.95
2018-09-21T08:48:06.314Z,61.02
2018-09-21T08:50:33.765Z,60.24
2018-09-21T08:53:01.221Z,59.70
2018-09-21T08:55:29.216Z,59.91
2018-09-21T08:57:56.693Z,60.06
2018-09-21T09:00:24.175Z,59.13
2018-09-21T09:02:52.139Z,58.74
2018-09-21T09:05:22.139Z,58.62
2018-09-21T09:07:50.219Z,58.28
2018-09-21T09:10:17.848Z,58.28
2018-09-21T09:12:45.322Z,57.17
2018-09-21T09:15:12.750Z,56.77
2018-09-21T09:17:40.540Z,56.22
2018-09-21T09:20:08.528Z,56.24
2018-09-21T09:22:35.962Z,56.24
2018-09-21T09:25:04.227Z,56.73
2018-09-21T09:27:31.748Z,57.43
2018-09-21T09:29:59.244Z,56.94
2018-09-21T09:32:26.990Z,56.86
2018-09-21T09:34:54.460Z,57.13
2018-09-21T09:37:21.975Z,57.38
2018-09-21T09:39:49.563Z,57.48
2018-09-21T09:42:16.993Z,56.48
2018-09-21T09:44:44.624Z,55.43
2018-09-21T09:47:12.303Z,55.23
2018-09-21T09:49:39.761Z,54.92
2018-09-21T09:52:07.326Z,54.84
2018-09-21T09:54:34.928Z,54.19
2018-09-21T09:57:02.679Z,54.06
2018-09-21T09:59:30.181Z,53.49
2018-09-21T10:01:58.160Z,54.15
2018-09-21T10:04:25.638Z,54.30
2018-09-21T10:06:53.138Z,54.39
2018-09-21T10:09:20.958Z,54.49
2018-09-21T10:11:48.401Z,54.75
2018-09-21T10:14:15.857Z,54.68
2018-09-21T10:16:43.493Z,55.76
2018-09-21T10:19:10.960Z,55.50
2018-09-21T10:21:38.458Z,56.58
2018-09-21T10:24:06.182Z,56.54
2018-09-21T10:26:33.679Z,57.26
2018-09-21T10:29:01.135Z,57.42
2018-09-21T10:31:28.701Z,57.52
2018-09-21T10:33:56.209Z,57.55
2018-09-21T10:36:23.708Z,57.76
2018-09-21T10:38:51.299Z,57.16
2018-09-21T10:41:18.781Z,57.11
2018-09-21T10:43:46.290Z,57.70
2018-09-21T10:46:13.846Z,57.58
2018-09-21T10:48:41.334Z,57.84
2018-09-21T10:51:08.771Z,58.10
2018-09-21T10:53:36.464Z,58.51
2018-09-21T10:56:03.897Z,59.10
2018-09-21T10:58:32.101Z,58.91
2018-09-21T11:00:59.718Z,59.15
2018-09-21T11:03:27.274Z,59.92
2018-09-21T11:05:54.749Z,59.88
2018-09-21T11:08:22.546Z,60.15
2018-09-21T11:10:50.051Z,60.46
2018-09-21T11:13:17.480Z,59.85
2018-09-21T11:15:45.232Z,59.70
2018-09-21T11:18:12.820Z,59.62
2018-09-21T11:20:40.272Z,59.86
2018-09-21T11:23:07.928Z,60.21
2018-09-21T11:25:35.403Z,59.94
2018-09-21T11:28:02.839Z,59.88
2018-09-21T11:30:30.627Z,60.14
2018-09-21T11:32:58.058Z,60.20
2018-09-21T11:35:25.588Z,60.66
2018-09-21T11:37:53.384Z,60.61
2018-09-21T11:40:20.830Z,60.95
2018-09-21T11:42:48.265Z,60.70
2018-09-21T11:45:15.851Z,61.12
2018-09-21T11:47:49.891Z,61.25
2018-09-21T11:50:17.582Z,61.34
2018-09-21T11:52:45.069Z,61.49
2018-09-21T11:55:12.517Z,61.32
2018-09-21T11:57:40.171Z,61.56
2018-09-21T12:00:07.779Z,61.75
2018-09-21T12:02:35.256Z,61.85
2018-09-21T12:05:03.107Z,61.31
2018-09-21T12:07:30.555Z,61.75
2018-09-21T12:09:58.049Z,62.02
2018-09-21T12:12:25.799Z,61.65
2018-09-21T12:14:53.268Z,61.82
2018-09-21T12:17:20.741Z,61.27
2018-09-21T12:19:48.713Z,61.15
2018-09-21T12:22:16.252Z,60.48
2018-09-21T12:24:43.684Z,59.45
2018-09-21T12:27:11.364Z,59.16
2018-09-21T12:29:38.816Z,58.40
2018-09-21T12:32:06.281Z,59.17
2018-09-21T12:34:33.821Z,59.11
2018-09-21T12:37:01.308Z,59.71
2018-09-21T12:39:28.793Z,59.86
2018-09-21T12:41:56.794Z,60.14
2018-09-21T12:44:24.292Z,60.92
2018-09-21T12:46:51.782Z,60.84
2018-09-21T12:49:19.554Z,61.09
2018-09-21T12:51:47.099Z,61.29
2018-09-21T12:54:14.544Z,61.94
2018-09-21T12:56:42.198Z,62.00
2018-09-21T12:59:09.633Z,62.21
2018-09-21T13:01:37.336Z,62.43
2018-09-21T13:04:05.134Z,62.31
2018-09-21T13:06:32.594Z,62.51
2018-09-21T13:09:00.090Z,62.63
2018-09-21T13:11:27.645Z,62.88
2018-09-21T13:13:55.081Z,63.14
2018-09-21T13:16:22.513Z,63.95
2018-09-21T13:18:50.357Z,63.82
2018-09-21T13:21:17.783Z,63.97
2018-09-21T13:23:45.203Z,64.64
2018-09-21T13:26:13.195Z,64.93
2018-09-21T13:28:40.583Z,65.10
2018-09-21T13:31:08.098Z,65.08
2018-09-21T13:33:35.639Z,64.76
2018-09-21T13:36:03.097Z,64.90
2018-09-21T13:38:30.576Z,65.26
2018-09-21T13:40:58.202Z,65.72
2018-09-21T13:43:25.770Z,65.68
2018-09-21T13:45:53.245Z,65.76
2018-09-21T13:48:20.860Z,66.45
2018-09-21T13:50:48.401Z,66.61
2018-09-21T13:53:15.894Z,67.12
2018-09-21T13:55:43.421Z,67.36
2018-09-21T13:58:10.867Z,67.87
2018-09-21T14:00:38.310Z,68.23
2018-09-21T14:03:06.355Z,68.50
2018-09-21T14:05:34.002Z,68.44
2018-09-21T14:08:01.435Z,68.64
2018-09-21T14:10:29.078Z,68.68
2018-09-21T14:12:56.534Z,69.05
2018-09-21T14:15:23.981Z,69.40
2018-09-21T14:17:51.571Z,69.38
2018-09-21T14:20:18.993Z,69.55
2018-09-21T14:22:46.533Z,69.70
2018-09-21T14:25:14.728Z,69.95
2018-09-21T14:27:42.161Z,70.19
2018-09-21T14:30:09.666Z,70.23
2018-09-21T14:32:37.293Z,70.78
2018-09-21T14:35:04.763Z,70.72
2018-09-21T14:37:32.174Z,71.27
2018-09-21T14:39:59.969Z,71.29
2018-09-21T14:42:28.528Z,71.54
2018-09-21T14:44:55.932Z,72.13
2018-09-21T14:47:23.614Z,72.18
2018-09-21T14:49:51.080Z,71.98
2018-09-21T14:52:18.574Z,72.19
2018-09-21T14:54:46.354Z,72.87
2018-09-21T14:57:13.835Z,73.10
2018-09-21T14:59:41.342Z,73.26
2018-09-21T15:02:09.026Z,72.98
2018-09-21T15:04:36.736Z,73.28
2018-09-21T15:07:04.212Z,73.56
2018-09-21T15:09:31.967Z,73.55
2018-09-21T15:11:59.440Z,73.36
2018-09-21T15:14:26.879Z,74.10
2018-09-21T15:16:54.412Z,73.64
2018-09-21T15:19:21.948Z,73.92
2018-09-21T15:24:47.732Z,74.47
2018-09-21T15:27:15.447Z,74.20
2018-09-21T15:29:42.874Z,74.78
2018-09-21T15:32:10.592Z,74.59
2018-09-21T15:34:38.045Z,74.61
2018-09-21T15:37:05.476Z,75.30
2018-09-21T15:39:33.187Z,74.90
2018-09-21T15:42:00.618Z,75.15
2018-09-21T15:44:28.035Z,75.40
2018-09-21T15:46:55.959Z,75.61
2018-09-21T15:49:23.583Z,75.15
2018-09-21T15:51:51.068Z,76.01
2018-09-21T15:54:18.681Z,76.14
2018-09-21T15:56:46.185Z,75.84
2018-09-21T15:59:13.770Z,75.97
2018-09-21T16:01:41.295Z,76.43
2018-09-21T16:04:08.880Z,76.84
2018-09-21T16:06:36.614Z,76.53
2018-09-21T16:09:06.526Z,77.13
2018-09-21T16:11:34.413Z,76.76
2018-09-21T16:14:01.887Z,76.71
2018-09-21T16:16:29.545Z,77.00
2018-09-21T16:18:57.073Z,77.12
2018-09-21T16:21:24.571Z,77.06
2018-09-21T16:23:52.401Z,77.40
2018-09-21T16:26:19.910Z,77.56
2018-09-21T16:28:47.535Z,77.69
2018-09-21T16:31:15.118Z,77.20
2018-09-21T16:33:42.711Z,77.62
2018-09-21T16:36:10.267Z,77.23
2018-09-21T16:38:37.765Z,77.69
2018-09-21T16:41:05.399Z,77.54
2018-09-21T16:43:32.896Z,77.34
2018-09-21T16:46:00.433Z,77.51
2018-09-21T16:48:27.923Z,77.81
2018-09-21T16:50:55.449Z,77.70
2018-09-21T16:53:23.157Z,78.20
2018-09-21T16:55:50.805Z,78.04
2018-09-21T16:58:18.222Z,78.33
2018-09-21T17:00:45.623Z,78.31
2018-09-21T17:03:13.381Z,77.96
2018-09-21T17:05:40.843Z,78.19
2018-09-21T17:08:08.344Z,78.33
2018-09-21T17:10:35.836Z,78.63
2018-09-21T17:13:03.302Z,78.32
2018-09-21T17:15:30.708Z,78.16
2018-09-21T17:17:58.507Z,78.16
2018-09-21T17:20:25.961Z,78.87
2018-09-21T17:22:53.423Z,78.60
2018-09-21T17:25:20.950Z,78.57
2018-09-21T17:27:48.414Z,78.78
2018-09-21T17:30:15.871Z,78.73
2018-09-21T17:32:43.415Z,78.27
2018-09-21T17:35:10.838Z,78.91
2018-09-21T17:37:38.393Z,78.37
2018-09-21T17:40:06.067Z,78.89
2018-09-21T17:42:33.486Z,78.45
2018-09-21T17:45:01.024Z,78.99
2018-09-21T17:47:28.600Z,78.91
2018-09-21T17:49:56.057Z,78.90
2018-09-21T17:52:23.488Z,78.54
2018-09-21T17:54:51.043Z,78.90
2018-09-21T17:57:18.505Z,78.59
2018-09-21T17:59:45.990Z,79.13
2018-09-21T18:02:13.422Z,79.05
2018-09-21T18:04:40.982Z,78.83
2018-09-21T18:07:10.303Z,78.62
2018-09-21T18:09:37.915Z,78.98
2018-09-21T18:12:05.394Z,78.60
2018-09-21T18:14:32.862Z,78.68
2018-09-21T18:17:00.515Z,79.24
2018-09-21T18:19:27.942Z,79.18
2018-09-21T18:21:55.413Z,79.06
2018-09-21T18:24:23.057Z,79.22
2018-09-21T18:26:50.521Z,78.92
2018-09-21T18:29:17.996Z,79.32
2018-09-21T18:31:45.558Z,79.49
2018-09-21T18:34:13.054Z,79.23
2018-09-21T18:36:40.515Z,79.15
2018-09-21T18:39:08.287Z,78.91
2018-09-21T18:41:35.832Z,79.34
2018-09-21T18:44:03.802Z,79.01
2018-09-21T18:46:31.267Z,78.71
2018-09-21T18:48:58.810Z,78.98
2018-09-21T18:51:26.277Z,78.98
2018-09-21T18:53:53.818Z,78.68
2018-09-21T18:56:21.322Z,79.06
2018-09-21T18:58:48.725Z,79.22
2018-09-21T19:01:16.412Z,78.87
2018-09-21T19:03:43.868Z,79.36
2018-09-21T19:06:11.375Z,78.43
2018-09-21T19:08:38.993Z,78.66
2018-09-21T19:11:06.571Z,78.91
2018-09-21T19:13:34.122Z,78.97
2018-09-21T19:16:01.630Z,78.38
2018-09-21T19:18:29.122Z,78.89
2018-09-21T19:20:56.565Z,78.75
2018-09-21T19:23:24.078Z,78.60
2018-09-21T19:25:51.570Z,78.10
2018-09-21T19:28:18.996Z,78.72
2018-09-21T19:30:46.510Z,78.52
2018-09-21T19:35:46.926Z,78.09
2018-09-21T19:38:14.533Z,78.53
2018-09-21T19:40:42.120Z,78.01
2018-09-21T19:43:09.649Z,77.91
2018-09-21T19:45:37.236Z,78.42
2018-09-21T19:48:04.898Z,77.96
2018-09-21T19:50:32.314Z,77.89
2018-09-21T19:52:59.958Z,77.90
2018-09-21T19:55:27.515Z,78.00
2018-09-21T19:57:54.957Z,78.14
2018-09-21T20:00:22.511Z,78.17
2018-09-21T20:02:49.954Z,78.10
2018-09-21T20:05:17.415Z,78.44
2018-09-21T20:07:45.074Z,78.15
2018-09-21T20:10:12.470Z,78.31
2018-09-21T20:12:40.110Z,78.20
2018-09-21T20:15:07.756Z,78.23
2018-09-21T20:17:35.214Z,77.83
2018-09-21T20:20:02.738Z,77.94
2018-09-21T20:22:30.391Z,78.32
2018-09-21T20:24:57.904Z,77.77
2018-09-21T20:27:25.435Z,78.22
2018-09-21T20:29:57.587Z,78.23
2018-09-21T20:32:30.646Z,77.66
2018-09-21T20:34:58.260Z,78.16
2018-09-21T20:37:25.847Z,78.20
2018-09-21T20:39:53.221Z,77.85
2018-09-21T20:42:20.878Z,77.77
2018-09-21T20:44:48.383Z,78.04
2018-09-21T20:47:15.809Z,77.70
2018-09-21T20:49:43.465Z,78.08
2018-09-21T20:52:10.936Z,77.62
2018-09-21T20:54:38.415Z,77.91
2018-09-21T20:57:06.121Z,78.04
2018-09-21T20:59:33.524Z,78.18
2018-09-21T21:02:00.968Z,78.13
2018-09-21T21:04:28.502Z,77.63
2018-09-21T21:06:55.943Z,77.97
2018-09-21T21:09:23.397Z,78.22
2018-09-21T21:11:51.004Z,78.18
2018-09-21T21:14:18.717Z,77.69
2018-09-21T21:16:46.178Z,78.09
2018-09-21T21:19:13.722Z,77.68
2018-09-21T21:21:41.212Z,77.68
2018-09-21T21:24:08.629Z,78.01
2018-09-21T21:26:36.205Z,77.58
2018-09-21T21:29:03.717Z,77.66
2018-09-21T21:31:31.219Z,78.15
2018-09-21T21:33:58.905Z,77.82
2018-09-21T21:36:26.373Z,77.84
2018-09-21T21:38:53.888Z,77.81
2018-09-21T21:41:21.421Z,78.34
2018-09-21T21:43:48.821Z,77.85
2018-09-21T21:46:16.349Z,78.37
2018-09-21T21:48:44.065Z,78.21
2018-09-21T21:51:11.517Z,77.60
2018-09-21T21:53:38.970Z,77.69
2018-09-21T21:56:06.658Z,77.70
2018-09-21T21:58:34.074Z,77.59
2018-09-21T22:01:07.099Z,77.77
2018-09-21T22:03:34.626Z,77.96
2018-09-21T22:06:02.143Z,77.40
2018-09-21T22:08:29.601Z,77.83
2018-09-21T22:10:57.241Z,77.71
2018-09-21T22:13:30.281Z,77.33
2018-09-21T22:15:57.886Z,77.67
2018-09-21T22:18:25.472Z,77.61
2018-09-21T22:20:52.948Z,77.53
2018-09-21T22:23:20.470Z,77.63
2018-09-21T22:25:48.220Z,77.02
2018-09-21T22:28:15.654Z,77.08
2018-09-21T22:30:43.135Z,77.11
2018-09-21T22:33:10.884Z,77.57
2018-09-21T22:35:38.353Z,77.06
2018-09-21T22:38:05.904Z,77.04
2018-09-21T22:40:33.649Z,77.59
2018-09-21T22:43:01.101Z,77.57
2018-09-21T22:45:28.581Z,77.28
2018-09-21T22:47:56.272Z,78.06
2018-09-21T22:50:23.772Z,78.01
2018-09-21T22:52:51.236Z,78.05
2018-09-21T22:55:18.988Z,78.28
2018-09-21T22:57:46.616Z,78.68
2018-09-21T23:00:14.070Z,78.53
2018-09-21T23:02:41.690Z,78.86
2018-09-21T23:05:09.193Z,78.67
2018-09-21T23:07:36.643Z,78.70
2018-09-21T23:10:04.419Z,79.08
2018-09-21T23:12:31.935Z,79.28
2018-09-21T23:14:59.390Z,78.89
2018-09-21T23:17:27.166Z,79.05
2018-09-21T23:19:54.625Z,79.28
2018-09-21T23:22:22.114Z,79.33
2018-09-21T23:24:49.733Z,78.97
2018-09-21T23:27:17.225Z,79.21
2018-09-21T23:29:44.691Z,79.21
2018-09-21T23:32:12.247Z,79.17
2018-09-21T23:34:39.672Z,79.64
2018-09-21T23:37:07.180Z,79.54
2018-09-21T23:39:34.770Z,79.82
2018-09-21T23:42:02.217Z,79.87
2018-09-21T23:44:29.680Z,79.57
2018-09-21T23:46:57.239Z,79.94
2018-09-21T23:49:24.634Z,79.94
2018-09-21T23:51:52.135Z,79.83
2018-09-21T23:54:19.746Z,80.02
2018-09-21T23:56:47.228Z,79.96
2018-09-21T23:59:14.697Z,79.97
